Terminal Aerodrome Forecast
Issued by NWS Charleston, WV

Current Version | Previous Version | Text Only | Print | Product List | Glossary Off
Versions: 1 2 3 4 5 6 7 8 9 10 11 12 13 14 15 16 17 18 19 20 21 22 23 24 25 26 27

000
FTUS41 KRLX 192100 AAA
TAFCRW
TAF AMD
KCRW 192107Z 1921/2018 27004KT 6SM HZ SCT025
     FM200000 00000KT 6SM HZ SCT030 BKN250
     FM200600 VRB03KT 5SM SHRA BR VCTS SCT040CB BKN080
     FM200900 VRB03KT 3SM SHRA BR VCTS SCT001 BKN035CB
     FM201400 00000KT 5SM SHRA BR BKN030
     FM201700 24005KT 6SM HZ BKN035=

USA.gov is the U.S. government's official web portal to all federal, state and local government web resources and services.